createdAt,value
2023-05-24T00:01:19.629Z,3.65
2023-05-24T00:03:50.891Z,4.56
2023-05-24T00:06:21.544Z,4.24
2023-05-24T00:08:50.509Z,4.18
2023-05-24T00:11:19.773Z,3.94
2023-05-24T00:13:49.561Z,4.78
2023-05-24T00:16:18.120Z,3.47
2023-05-24T00:18:46.522Z,2.83
2023-05-24T00:21:16.792Z,2.50
2023-05-24T00:23:45.127Z,2.38
2023-05-24T00:26:13.458Z,1.69
2023-05-24T00:28:41.848Z,1.56
2023-05-24T00:31:10.143Z,1.82
2023-05-24T00:33:38.417Z,1.57
2023-05-24T00:36:06.879Z,1.49
2023-05-24T00:38:35.189Z,1.17
2023-05-24T00:41:04.404Z,1.05
2023-05-24T00:43:32.801Z,1.45
2023-05-24T00:46:34.736Z,2.11
2023-05-24T00:49:05.128Z,1.84
2023-05-24T00:51:36.412Z,1.90
2023-05-24T00:54:04.871Z,2.21
2023-05-24T00:56:35.477Z,1.96
2023-05-24T00:59:04.673Z,2.32
2023-05-24T01:01:33.320Z,2.43
2023-05-24T01:04:04.146Z,2.57
2023-05-24T01:06:47.355Z,2.39
2023-05-24T01:09:36.401Z,2.43
2023-05-24T01:12:32.852Z,2.11
2023-05-24T01:15:43.646Z,1.65
2023-05-24T01:18:38.580Z,1.79
2023-05-24T01:21:12.883Z,1.82
2023-05-24T01:24:13.257Z,2.13
2023-05-24T01:27:15.867Z,1.98
2023-05-24T01:29:44.706Z,1.55
2023-05-24T01:32:13.845Z,1.30
2023-05-24T01:34:42.075Z,1.50
2023-05-24T01:37:10.371Z,1.53
2023-05-24T01:39:41.914Z,1.40
2023-05-24T01:42:26.501Z,1.53
2023-05-24T01:45:15.246Z,1.61
2023-05-24T01:48:13.931Z,1.69
2023-05-24T01:50:52.333Z,1.68
2023-05-24T01:53:24.560Z,1.56
2023-05-24T01:55:59.833Z,1.63
2023-05-24T01:58:30.850Z,1.90
2023-05-24T02:01:00.685Z,2.00
2023-05-24T02:03:29.361Z,2.07
2023-05-24T02:05:57.656Z,2.19
2023-05-24T02:08:25.900Z,2.00
2023-05-24T02:10:54.129Z,1.75
2023-05-24T02:13:22.413Z,1.96
2023-05-24T02:15:50.716Z,2.65
2023-05-24T02:18:19.312Z,2.54
2023-05-24T02:20:47.535Z,2.60
2023-05-24T02:23:15.797Z,3.13
2023-05-24T02:25:44.009Z,2.52
2023-05-24T02:28:12.276Z,2.52
2023-05-24T02:30:40.652Z,2.45
2023-05-24T02:33:09.072Z,2.92
2023-05-24T02:35:37.381Z,2.78
2023-05-24T02:38:05.774Z,2.94
2023-05-24T02:40:33.957Z,2.70
2023-05-24T02:43:02.300Z,2.24
2023-05-24T02:45:30.652Z,2.24
2023-05-24T02:47:58.894Z,2.53
2023-05-24T02:50:27.193Z,2.72
2023-05-24T02:52:55.413Z,2.69
2023-05-24T02:55:23.647Z,2.29
2023-05-24T02:57:51.846Z,2.50
2023-05-24T03:00:20.318Z,2.39
2023-05-24T03:02:48.561Z,1.89
2023-05-24T03:05:17.704Z,2.09
2023-05-24T03:07:45.932Z,2.37
2023-05-24T03:10:15.976Z,2.84
2023-05-24T03:12:44.370Z,2.92
2023-05-24T03:15:12.613Z,3.69
2023-05-24T03:17:40.885Z,3.46
2023-05-24T03:20:09.520Z,2.72
2023-05-24T03:22:37.736Z,3.06
2023-05-24T03:25:06.709Z,3.45
2023-05-24T03:27:36.455Z,3.48
2023-05-24T03:30:05.445Z,3.11
2023-05-24T03:32:33.788Z,3.58
2023-05-24T03:35:02.101Z,3.43
2023-05-24T03:37:30.357Z,2.43
2023-05-24T03:39:58.629Z,2.38
2023-05-24T03:42:26.888Z,2.40
2023-05-24T03:44:55.166Z,2.70
2023-05-24T03:47:23.516Z,2.53
2023-05-24T03:49:51.802Z,2.79
2023-05-24T03:52:20.015Z,3.61
2023-05-24T03:54:48.217Z,3.66
2023-05-24T03:57:17.504Z,3.47
2023-05-24T03:59:45.746Z,3.25
2023-05-24T04:02:13.979Z,3.58
2023-05-24T04:04:42.281Z,3.26
2023-05-24T04:07:10.524Z,3.71
2023-05-24T04:09:38.741Z,4.05
2023-05-24T04:12:07.045Z,4.87
2023-05-24T04:14:35.295Z,5.03
2023-05-24T04:17:03.931Z,5.13
2023-05-24T04:19:32.226Z,5.14
2023-05-24T04:22:00.483Z,5.29
2023-05-24T04:27:01.720Z,6.37
2023-05-24T04:29:28.582Z,5.84
2023-05-24T04:31:55.416Z,4.90
2023-05-24T04:34:24.321Z,4.65
2023-05-24T04:36:51.184Z,4.55
2023-05-24T04:39:18.386Z,5.15
2023-05-24T04:41:46.663Z,5.81
2023-05-24T04:44:13.944Z,5.93
2023-05-24T04:46:40.808Z,5.74
2023-05-24T04:49:09.004Z,7.30
2023-05-24T04:51:35.953Z,7.71
2023-05-24T04:54:05.502Z,6.96
2023-05-24T04:56:32.374Z,6.53
2023-05-24T04:58:59.353Z,6.63
2023-05-24T05:01:26.388Z,6.62
2023-05-24T05:03:53.902Z,7.14
2023-05-24T05:06:20.837Z,7.53
2023-05-24T05:08:47.787Z,8.73
2023-05-24T05:11:14.815Z,9.83
2023-05-24T05:13:41.835Z,9.49
2023-05-24T05:16:08.853Z,9.25
2023-05-24T05:18:35.844Z,9.30
2023-05-24T05:21:04.234Z,9.70
2023-05-24T05:23:31.080Z,10.75
2023-05-24T05:25:57.967Z,12.09
2023-05-24T05:28:24.841Z,11.63
2023-05-24T05:30:51.664Z,9.54
2023-05-24T05:33:18.573Z,9.15
2023-05-24T05:35:45.556Z,9.42
2023-05-24T05:38:12.600Z,8.94
2023-05-24T05:40:39.434Z,11.08
2023-05-24T05:43:06.514Z,11.18
2023-05-24T05:45:33.438Z,10.96
2023-05-24T05:48:00.403Z,9.29
2023-05-24T05:50:27.267Z,8.57
2023-05-24T05:52:54.342Z,7.58
2023-05-24T05:55:21.257Z,7.65
2023-05-24T05:57:48.095Z,5.72
2023-05-24T06:00:15.666Z,5.62
2023-05-24T06:02:42.632Z,5.64
2023-05-24T06:05:10.343Z,7.72
2023-05-24T06:07:37.440Z,7.04
2023-05-24T06:10:04.992Z,6.77
2023-05-24T06:12:32.157Z,5.85
2023-05-24T06:14:59.089Z,5.31
2023-05-24T06:17:26.069Z,5.32
2023-05-24T06:19:53.014Z,4.99
2023-05-24T06:22:19.918Z,5.25
2023-05-24T06:24:46.985Z,4.42
2023-05-24T06:27:14.119Z,4.29
2023-05-24T06:29:40.992Z,4.22
2023-05-24T06:32:07.951Z,3.57
2023-05-24T06:34:34.818Z,4.60
2023-05-24T06:37:01.675Z,4.46
2023-05-24T06:39:29.080Z,2.60
2023-05-24T06:41:55.934Z,3.99
2023-05-24T06:44:24.628Z,4.79
2023-05-24T06:46:52.992Z,3.69
2023-05-24T06:49:19.862Z,3.11
2023-05-24T06:51:49.696Z,3.09
2023-05-24T06:54:16.549Z,2.76
2023-05-24T06:56:43.426Z,2.74
2023-05-24T06:59:10.346Z,3.17
2023-05-24T07:01:38.880Z,2.51
2023-05-24T07:04:06.274Z,2.90
2023-05-24T07:06:33.146Z,3.66
2023-05-24T07:09:00.207Z,2.51
2023-05-24T07:11:28.395Z,2.46
2023-05-24T07:13:57.030Z,2.01
2023-05-24T07:16:23.987Z,2.24
2023-05-24T07:18:50.872Z,2.01
2023-05-24T07:21:18.278Z,2.31
2023-05-24T07:23:46.670Z,1.36
2023-05-24T07:26:13.542Z,1.55
2023-05-24T07:28:40.522Z,2.00
2023-05-24T07:31:11.076Z,1.90
2023-05-24T07:33:38.448Z,1.91
2023-05-24T07:36:06.209Z,2.10
2023-05-24T07:38:34.181Z,1.81
2023-05-24T07:41:02.706Z,1.81
2023-05-24T07:43:29.641Z,1.96
2023-05-24T07:45:58.072Z,1.80
2023-05-24T07:48:24.980Z,1.86
2023-05-24T07:50:51.939Z,1.72
2023-05-24T07:53:18.889Z,1.90
2023-05-24T07:55:46.022Z,1.35
2023-05-24T07:58:12.924Z,1.83
2023-05-24T08:00:39.737Z,1.68
2023-05-24T08:03:06.714Z,1.89
2023-05-24T08:05:36.804Z,1.80
2023-05-24T08:08:05.052Z,1.40
2023-05-24T08:10:31.914Z,1.29
2023-05-24T08:12:58.766Z,1.72
2023-05-24T08:15:25.698Z,1.59
2023-05-24T08:17:52.620Z,1.67
2023-05-24T08:20:19.634Z,1.84
2023-05-24T08:22:46.552Z,2.05
2023-05-24T08:25:13.593Z,1.64
2023-05-24T08:27:40.684Z,1.46
2023-05-24T08:30:09.200Z,1.17
2023-05-24T08:32:36.763Z,1.81
2023-05-24T08:35:19.181Z,1.44
2023-05-24T08:37:47.510Z,1.89
2023-05-24T08:40:14.611Z,2.20
2023-05-24T08:42:41.635Z,1.99
2023-05-24T08:45:14.431Z,1.93
2023-05-24T08:47:41.474Z,1.86
2023-05-24T08:50:09.375Z,2.19
2023-05-24T08:52:38.578Z,2.36
2023-05-24T08:55:06.665Z,2.70
2023-05-24T08:57:35.430Z,3.06
2023-05-24T09:00:02.382Z,2.57
2023-05-24T09:02:31.066Z,2.56
2023-05-24T09:04:59.600Z,2.21
2023-05-24T09:07:33.007Z,2.66
2023-05-24T09:10:07.647Z,2.43
2023-05-24T09:12:43.550Z,2.06
2023-05-24T09:15:11.958Z,2.28
2023-05-24T09:17:38.960Z,2.05
2023-05-24T09:20:07.936Z,2.04
2023-05-24T09:22:41.601Z,2.26
2023-05-24T09:25:13.344Z,2.09
2023-05-24T09:27:40.752Z,2.05
2023-05-24T09:30:10.345Z,2.16
2023-05-24T09:32:38.633Z,2.10
2023-05-24T09:35:09.222Z,2.18
2023-05-24T09:37:37.978Z,1.99
2023-05-24T09:40:06.372Z,2.23
2023-05-24T09:42:34.839Z,1.97
2023-05-24T09:45:07.792Z,1.91
2023-05-24T09:47:38.340Z,2.23
2023-05-24T09:50:16.154Z,1.78
2023-05-24T09:52:43.985Z,1.93
2023-05-24T09:55:20.277Z,1.84
2023-05-24T09:58:01.312Z,1.69
2023-05-24T10:00:32.451Z,1.49
2023-05-24T10:03:04.072Z,1.72
2023-05-24T10:05:30.989Z,1.70
2023-05-24T10:08:00.156Z,1.72
2023-05-24T10:10:33.425Z,1.53
2023-05-24T10:13:02.582Z,1.63
2023-05-24T10:15:30.243Z,1.84
2023-05-24T10:17:58.835Z,1.68
2023-05-24T10:20:25.893Z,1.71
2023-05-24T10:23:09.559Z,1.48
2023-05-24T10:25:45.080Z,1.39
2023-05-24T10:28:17.624Z,1.86
2023-05-24T10:31:14.164Z,1.50
2023-05-24T10:33:45.789Z,1.73
2023-05-24T10:36:15.912Z,1.56
2023-05-24T10:38:46.197Z,1.55
2023-05-24T10:41:13.483Z,1.66
2023-05-24T10:43:56.786Z,1.44
2023-05-24T10:46:33.606Z,1.33
2023-05-24T10:49:00.994Z,1.32
2023-05-24T10:51:39.065Z,1.31
2023-05-24T10:54:25.869Z,1.40
2023-05-24T10:56:52.991Z,1.49
2023-05-24T10:59:38.453Z,1.29
2023-05-24T11:02:10.591Z,1.36
2023-05-24T11:04:41.347Z,1.14
2023-05-24T11:07:13.533Z,1.60
2023-05-24T11:09:42.439Z,1.73
2023-05-24T11:12:09.485Z,1.54
2023-05-24T11:14:39.597Z,1.54
2023-05-24T11:17:08.929Z,1.51
2023-05-24T11:19:44.490Z,1.53
2023-05-24T11:22:14.686Z,1.52
2023-05-24T11:24:44.141Z,1.52
2023-05-24T11:27:13.480Z,1.73
2023-05-24T11:29:43.685Z,1.60
2023-05-24T11:32:17.135Z,1.22
2023-05-24T11:34:49.077Z,1.34
2023-05-24T11:37:18.445Z,1.48
2023-05-24T11:39:51.994Z,1.40
2023-05-24T11:42:21.541Z,1.28
2023-05-24T11:44:52.770Z,1.48
2023-05-24T11:47:20.331Z,1.64
2023-05-24T11:49:51.854Z,1.75
2023-05-24T11:52:20.875Z,2.01
2023-05-24T11:54:49.423Z,1.45
2023-05-24T11:57:22.975Z,1.43
2023-05-24T11:59:49.970Z,1.48
2023-05-24T12:02:18.472Z,2.26
2023-05-24T12:04:45.682Z,2.14
2023-05-24T12:07:12.863Z,2.85
2023-05-24T12:09:40.803Z,2.58
2023-05-24T12:12:08.361Z,2.60
2023-05-24T12:14:35.788Z,2.25
2023-05-24T12:17:02.927Z,2.10
2023-05-24T12:19:33.881Z,1.95
2023-05-24T12:22:07.496Z,1.87
2023-05-24T12:24:37.440Z,2.00
2023-05-24T12:27:05.771Z,1.79
2023-05-24T12:29:40.958Z,1.96
2023-05-24T12:32:12.833Z,2.19
2023-05-24T12:34:43.239Z,2.04
2023-05-24T12:37:12.046Z,1.94
2023-05-24T12:39:39.185Z,1.92
2023-05-24T12:42:06.302Z,1.77
2023-05-24T12:44:39.229Z,1.81
2023-05-24T12:47:08.484Z,1.64
2023-05-24T12:49:36.186Z,1.59
2023-05-24T12:52:04.415Z,1.66
2023-05-24T12:54:31.537Z,1.71
2023-05-24T12:56:58.612Z,1.72
2023-05-24T12:59:26.754Z,1.58
2023-05-24T13:01:53.972Z,1.84
2023-05-24T13:04:23.785Z,2.10
2023-05-24T13:06:50.864Z,1.96
2023-05-24T13:09:17.797Z,1.88
2023-05-24T13:11:44.680Z,1.78
2023-05-24T13:14:11.989Z,1.65
2023-05-24T13:16:38.982Z,1.71
2023-05-24T13:19:06.317Z,1.73
2023-05-24T13:21:33.268Z,1.86
2023-05-24T13:24:00.514Z,1.65
2023-05-24T13:26:27.529Z,1.87
2023-05-24T13:29:26.629Z,1.83
2023-05-24T13:31:41.757Z,1.90
2023-05-24T13:34:08.933Z,2.00
2023-05-24T13:36:36.275Z,1.96
2023-05-24T13:39:14.781Z,2.03
2023-05-24T13:41:44.203Z,1.94
2023-05-24T13:44:14.559Z,1.92
2023-05-24T13:46:43.160Z,1.81
2023-05-24T13:49:12.124Z,1.79
2023-05-24T13:51:40.204Z,2.14
2023-05-24T13:54:07.400Z,1.87
2023-05-24T13:56:36.338Z,1.77
2023-05-24T13:59:05.039Z,1.78
2023-05-24T14:01:34.848Z,2.07
2023-05-24T14:04:04.989Z,2.08
2023-05-24T14:06:33.154Z,2.48
2023-05-24T14:09:00.386Z,2.33
2023-05-24T14:11:27.617Z,2.16
2023-05-24T14:16:24.740Z,2.68
2023-05-24T14:18:52.277Z,2.67
2023-05-24T14:21:20.212Z,2.50
2023-05-24T14:23:47.228Z,2.80
2023-05-24T14:26:14.445Z,2.83
2023-05-24T14:28:41.297Z,3.10
2023-05-24T14:31:08.324Z,2.73
2023-05-24T14:33:35.435Z,2.86
2023-05-24T14:36:02.527Z,2.97
2023-05-24T14:38:29.791Z,2.75
2023-05-24T14:40:56.930Z,2.94
2023-05-24T14:43:26.019Z,2.14
2023-05-24T14:45:52.949Z,2.43
2023-05-24T14:48:19.851Z,2.46
2023-05-24T14:50:46.998Z,2.47
2023-05-24T14:53:14.055Z,2.70
2023-05-24T14:55:43.128Z,2.94
2023-05-24T14:58:12.357Z,2.89
2023-05-24T15:00:41.980Z,2.55
2023-05-24T15:03:10.179Z,2.44
2023-05-24T15:05:37.500Z,3.17
2023-05-24T15:08:04.573Z,2.97
2023-05-24T15:10:31.638Z,3.00
2023-05-24T15:12:58.509Z,3.74
2023-05-24T15:15:25.375Z,3.13
2023-05-24T15:17:52.264Z,3.57
2023-05-24T15:20:19.685Z,3.18
2023-05-24T15:22:47.370Z,3.30
2023-05-24T15:25:14.321Z,3.54
2023-05-24T15:27:41.506Z,3.36
2023-05-24T15:30:08.587Z,3.02
2023-05-24T15:32:35.636Z,3.29
2023-05-24T15:35:02.970Z,3.26
2023-05-24T15:37:30.220Z,3.24
2023-05-24T15:39:57.391Z,3.48
2023-05-24T15:42:24.243Z,3.63
2023-05-24T15:44:51.350Z,3.89
2023-05-24T15:47:21.273Z,4.23
2023-05-24T15:49:50.123Z,3.99
2023-05-24T15:52:17.282Z,4.00
2023-05-24T15:54:44.210Z,4.31
2023-05-24T15:57:11.073Z,4.10
2023-05-24T15:59:39.430Z,3.88
2023-05-24T16:02:08.588Z,3.75
2023-05-24T16:04:35.506Z,4.12
2023-05-24T16:07:02.584Z,3.69
2023-05-24T16:09:29.675Z,3.92
2023-05-24T16:11:56.671Z,3.98
2023-05-24T16:14:23.820Z,4.11
2023-05-24T16:16:50.718Z,3.89
2023-05-24T16:19:18.112Z,3.82
2023-05-24T16:21:45.045Z,3.45
2023-05-24T16:24:11.938Z,3.79
2023-05-24T16:26:39.448Z,3.62
2023-05-24T16:29:06.697Z,3.55
2023-05-24T16:31:33.841Z,3.63
2023-05-24T16:34:01.162Z,3.18
2023-05-24T16:36:28.507Z,3.17
2023-05-24T16:38:55.408Z,3.37
2023-05-24T16:41:22.646Z,3.35
2023-05-24T16:43:49.849Z,3.21
2023-05-24T16:46:17.197Z,3.25
2023-05-24T16:48:44.127Z,3.52
2023-05-24T16:51:11.376Z,3.39
2023-05-24T16:53:38.737Z,3.56
2023-05-24T16:56:05.805Z,4.00
2023-05-24T16:58:33.066Z,3.86
2023-05-24T17:01:00.331Z,4.04
2023-05-24T17:03:27.356Z,4.17
2023-05-24T17:05:56.545Z,3.89
2023-05-24T17:08:24.809Z,3.42
2023-05-24T17:10:52.225Z,3.37
2023-05-24T17:13:19.537Z,3.15
2023-05-24T17:15:46.796Z,3.41
2023-05-24T17:18:14.082Z,3.68
2023-05-24T17:20:41.139Z,3.23
2023-05-24T17:23:09.708Z,3.62
2023-05-24T17:25:37.270Z,3.02
2023-05-24T17:28:04.117Z,3.32
2023-05-24T17:30:31.373Z,2.80
2023-05-24T17:32:59.588Z,2.93
2023-05-24T17:35:27.075Z,2.84
2023-05-24T17:37:54.485Z,2.59
2023-05-24T17:40:21.937Z,3.17
2023-05-24T17:42:49.484Z,2.18
2023-05-24T17:45:17.682Z,2.24
2023-05-24T17:47:44.683Z,3.42
2023-05-24T17:50:12.271Z,3.62
2023-05-24T17:52:39.690Z,3.04
2023-05-24T17:55:08.789Z,2.88
2023-05-24T17:57:36.410Z,2.89
2023-05-24T18:00:07.130Z,3.03
2023-05-24T18:02:34.197Z,2.62
2023-05-24T18:05:01.179Z,1.50
2023-05-24T18:07:28.067Z,1.75
2023-05-24T18:09:55.169Z,1.20
2023-05-24T18:12:22.412Z,1.05
2023-05-24T18:14:49.685Z,1.23
2023-05-24T18:17:17.116Z,1.44
2023-05-24T18:19:44.434Z,1.27
2023-05-24T18:22:11.354Z,0.85
2023-05-24T18:24:40.474Z,1.11
2023-05-24T18:27:08.383Z,0.97
2023-05-24T18:29:35.280Z,1.56
2023-05-24T18:32:02.370Z,1.31
2023-05-24T18:34:32.643Z,1.22
2023-05-24T18:37:01.041Z,1.23
2023-05-24T18:39:28.335Z,1.22
2023-05-24T18:41:57.539Z,1.56
2023-05-24T18:44:26.375Z,1.61
2023-05-24T18:46:56.389Z,1.56
2023-05-24T18:49:23.671Z,1.55
2023-05-24T18:51:50.969Z,1.75
2023-05-24T18:54:17.978Z,2.01
2023-05-24T18:56:45.270Z,1.66
2023-05-24T18:59:12.640Z,2.02
2023-05-24T19:01:40.480Z,1.37
2023-05-24T19:04:07.812Z,1.75
2023-05-24T19:06:36.214Z,1.12
2023-05-24T19:09:03.491Z,1.60
2023-05-24T19:11:31.027Z,2.06
2023-05-24T19:13:57.900Z,2.07
2023-05-24T19:16:28.960Z,2.02
2023-05-24T19:18:59.210Z,1.96
2023-05-24T19:21:27.624Z,2.45
2023-05-24T19:23:54.881Z,2.44
2023-05-24T19:26:22.781Z,2.38
2023-05-24T19:28:50.040Z,2.20
2023-05-24T19:31:24.127Z,2.46
2023-05-24T19:34:00.004Z,2.23
2023-05-24T19:36:29.944Z,2.72
2023-05-24T19:38:59.865Z,2.88
2023-05-24T19:41:27.179Z,2.83
2023-05-24T19:43:56.258Z,2.60
2023-05-24T19:46:28.644Z,2.59
2023-05-24T19:48:56.040Z,2.69
2023-05-24T19:51:23.386Z,2.33
2023-05-24T19:53:50.757Z,2.63
2023-05-24T19:56:17.661Z,2.93
2023-05-24T19:58:44.544Z,3.25
2023-05-24T20:01:11.837Z,2.63
2023-05-24T20:03:41.810Z,3.27
2023-05-24T20:06:08.686Z,5.33
2023-05-24T20:08:36.005Z,4.52
2023-05-24T20:11:03.420Z,5.34
2023-05-24T20:13:33.548Z,4.52
2023-05-24T20:16:00.929Z,3.28
2023-05-24T20:18:27.948Z,2.10
2023-05-24T20:20:54.887Z,2.95
2023-05-24T20:23:25.405Z,3.08
2023-05-24T20:25:56.530Z,2.98
2023-05-24T20:28:30.691Z,3.16
2023-05-24T20:30:59.027Z,3.18
2023-05-24T20:33:26.470Z,3.26
2023-05-24T20:35:53.419Z,3.22
2023-05-24T20:38:22.060Z,3.30
2023-05-24T20:40:49.354Z,3.08
2023-05-24T20:43:16.264Z,3.09
2023-05-24T20:45:45.403Z,3.00
2023-05-24T20:48:13.366Z,2.92
2023-05-24T20:50:40.266Z,2.95
2023-05-24T20:53:07.117Z,2.98
2023-05-24T20:55:33.965Z,2.99
2023-05-24T20:58:01.261Z,3.79
2023-05-24T21:00:28.128Z,4.84
2023-05-24T21:02:55.085Z,8.93
2023-05-24T21:05:22.230Z,10.03
2023-05-24T21:07:49.100Z,9.72
2023-05-24T21:10:19.551Z,8.17
2023-05-24T21:12:48.210Z,4.70
2023-05-24T21:15:15.535Z,3.84
2023-05-24T21:17:42.788Z,3.02
2023-05-24T21:20:10.265Z,3.08
2023-05-24T21:22:37.177Z,3.72
2023-05-24T21:25:05.161Z,2.76
2023-05-24T21:27:32.022Z,3.06
2023-05-24T21:29:59.162Z,2.89
2023-05-24T21:32:26.026Z,2.94
2023-05-24T21:34:52.895Z,2.66
2023-05-24T21:37:19.733Z,2.79
2023-05-24T21:39:46.586Z,2.83
2023-05-24T21:42:13.463Z,3.05
2023-05-24T21:44:40.302Z,2.79
2023-05-24T21:47:07.179Z,2.53
2023-05-24T21:49:34.040Z,2.68
2023-05-24T21:52:00.906Z,2.24
2023-05-24T21:54:27.899Z,2.13
2023-05-24T21:56:54.842Z,1.92
2023-05-24T21:59:21.758Z,2.43
2023-05-24T22:01:48.991Z,2.42
2023-05-24T22:04:16.207Z,2.24
2023-05-24T22:06:43.124Z,2.50
2023-05-24T22:09:12.015Z,2.11
2023-05-24T22:11:39.415Z,2.15
2023-05-24T22:14:06.833Z,1.93
2023-05-24T22:16:33.720Z,2.36
2023-05-24T22:19:00.640Z,2.43
2023-05-24T22:21:27.637Z,2.27
2023-05-24T22:23:54.490Z,2.40
2023-05-24T22:26:21.713Z,2.20
2023-05-24T22:28:56.321Z,2.05
2023-05-24T22:31:24.415Z,2.06
2023-05-24T22:33:52.638Z,2.48
2023-05-24T22:36:19.539Z,2.52
2023-05-24T22:38:46.431Z,2.35
2023-05-24T22:41:13.300Z,2.18
2023-05-24T22:43:40.160Z,2.65
2023-05-24T22:46:09.225Z,2.57
2023-05-24T22:48:37.560Z,2.30
2023-05-24T22:51:04.664Z,2.83
2023-05-24T22:53:31.643Z,3.02
2023-05-24T22:55:58.462Z,2.94
2023-05-24T22:58:25.316Z,3.16
2023-05-24T23:00:52.337Z,2.77
2023-05-24T23:03:19.179Z,3.14
2023-05-24T23:05:46.072Z,3.05
2023-05-24T23:08:13.123Z,3.02
2023-05-24T23:10:40.212Z,3.56
2023-05-24T23:13:07.038Z,3.40
2023-05-24T23:15:34.172Z,2.88
2023-05-24T23:18:01.030Z,3.20
2023-05-24T23:20:28.095Z,3.60
2023-05-24T23:22:54.971Z,3.12
2023-05-24T23:25:21.866Z,3.49
2023-05-24T23:27:48.758Z,3.85
2023-05-24T23:30:15.827Z,3.90
2023-05-24T23:32:44.326Z,4.16
2023-05-24T23:35:11.181Z,3.69
2023-05-24T23:37:38.053Z,3.60
2023-05-24T23:40:07.210Z,4.18
2023-05-24T23:42:34.199Z,4.42
2023-05-24T23:45:03.800Z,4.77
2023-05-24T23:47:30.692Z,4.35
2023-05-24T23:49:57.541Z,4.57
2023-05-24T23:52:24.374Z,4.99
2023-05-24T23:54:51.255Z,5.78
2023-05-24T23:57:19.021Z,5.26
2023-05-24T23:59:46.437Z,4.98
